createdAt,value
2022-08-22T00:00:16.201Z,100993.50
2022-08-22T00:03:10.556Z,100999.84
2022-08-22T00:03:15.453Z,100992.56
2022-08-22T00:03:18.793Z,100998.53
2022-08-22T00:06:04.150Z,100998.75
2022-08-22T00:08:43.943Z,100989.00
2022-08-22T00:11:22.192Z,100994.41
2022-08-22T00:14:01.995Z,100999.19
2022-08-22T00:16:42.990Z,100997.97
2022-08-22T00:19:25.483Z,101001.13
2022-08-22T00:22:04.558Z,100993.50
2022-08-22T00:24:41.784Z,100993.50
2022-08-22T00:27:16.099Z,100993.13
2022-08-22T00:29:52.723Z,100994.63
2022-08-22T00:32:30.149Z,100993.19
2022-08-22T00:35:05.863Z,100990.13
2022-08-22T00:37:55.488Z,100987.66
2022-08-22T00:40:33.636Z,100995.97
2022-08-22T00:43:21.055Z,100999.72
2022-08-22T00:46:17.920Z,100998.06
2022-08-22T00:49:17.586Z,101003.47
2022-08-22T00:52:11.698Z,100998.97
2022-08-22T00:55:05.088Z,100998.59
2022-08-22T00:57:50.103Z,100991.53
2022-08-22T01:00:22.863Z,100997.75
2022-08-22T01:03:22.625Z,100992.34
2022-08-22T01:06:09.546Z,100995.03
2022-08-22T01:09:01.492Z,100992.16
2022-08-22T01:11:51.915Z,101003.75
2022-08-22T01:14:40.118Z,100996.28
2022-08-22T01:17:40.690Z,101006.00
2022-08-22T01:20:33.861Z,101004.38
2022-08-22T01:23:33.076Z,101005.41
2022-08-22T01:26:38.864Z,101009.16
2022-08-22T01:29:42.430Z,101012.91
2022-08-22T01:32:57.172Z,101023.69
2022-08-22T01:35:51.301Z,101017.66
2022-08-22T01:38:35.314Z,101025.16
2022-08-22T01:41:29.600Z,101032.66
2022-08-22T01:44:21.072Z,101029.34
2022-08-22T01:47:01.236Z,101019.47
2022-08-22T01:49:40.136Z,101024.03
2022-08-22T01:52:18.237Z,101026.13
2022-08-22T01:54:57.879Z,101028.00
2022-08-22T01:57:29.115Z,101023.66
2022-08-22T02:00:05.138Z,101021.19
2022-08-22T02:03:01.926Z,101018.47
2022-08-22T02:05:37.474Z,101022.44
2022-08-22T02:08:24.078Z,101014.16
2022-08-22T02:11:02.531Z,101009.22
2022-08-22T02:13:46.155Z,101015.50
2022-08-22T02:16:23.506Z,101015.91
2022-08-22T02:19:23.888Z,101013.66
2022-08-22T02:21:58.843Z,101009.53
2022-08-22T02:24:46.731Z,101015.16
2022-08-22T02:27:31.486Z,101018.88
2022-08-22T02:30:09.026Z,101020.97
2022-08-22T02:32:52.326Z,101023.06
2022-08-22T02:35:30.530Z,101017.69
2022-08-22T02:38:17.605Z,101018.72
2022-08-22T02:41:02.836Z,101022.47
2022-08-22T02:43:42.678Z,101020.00
2022-08-22T02:46:25.037Z,101017.53
2022-08-22T02:49:05.324Z,101017.28
2022-08-22T02:51:47.313Z,101016.47
2022-08-22T02:54:25.246Z,101016.47
2022-08-22T02:57:04.913Z,101014.81
2022-08-22T02:59:41.972Z,101024.78
2022-08-22T03:02:32.174Z,101016.91
2022-08-22T03:05:04.637Z,101019.81
2022-08-22T03:07:46.059Z,101021.09
2022-08-22T03:10:24.325Z,101017.34
2022-08-22T03:13:14.349Z,101015.25
2022-08-22T03:15:52.634Z,101009.28
2022-08-22T03:18:28.563Z,101012.78
2022-08-22T03:21:14.519Z,101009.28
2022-08-22T03:23:49.338Z,101010.31
2022-08-22T03:26:25.546Z,101008.66
2022-08-22T03:29:04.304Z,101009.09
2022-08-22T03:31:35.657Z,101003.94
2022-08-22T03:34:24.732Z,101006.03
2022-08-22T03:37:08.929Z,101006.03
2022-08-22T03:39:54.502Z,101004.97
2022-08-22T03:42:56.644Z,100999.59
2022-08-22T03:46:00.987Z,101006.41
2022-08-22T03:49:06.434Z,101007.22
2022-08-22T03:51:49.208Z,101007.69
2022-08-22T03:54:58.013Z,101010.59
2022-08-22T03:57:49.792Z,101009.97
2022-08-22T04:00:34.093Z,101016.22
2022-08-22T04:03:45.267Z,101023.69
2022-08-22T04:06:43.862Z,101022.88
2022-08-22T04:09:45.816Z,101032.38
2022-08-22T04:12:32.351Z,101027.00
2022-08-22T04:15:29.832Z,101033.00
2022-08-22T04:18:33.498Z,101037.16
2022-08-22T04:21:24.081Z,101040.84
2022-08-22T04:24:30.136Z,101038.38
2022-08-22T04:27:05.089Z,101033.22
2022-08-22T04:29:40.888Z,101047.72
2022-08-22T04:32:15.296Z,101048.75
2022-08-22T04:34:52.589Z,101057.69
2022-08-22T04:37:27.941Z,101043.97
2022-08-22T04:40:02.542Z,101049.16
2022-08-22T04:42:39.094Z,101049.75
2022-08-22T04:45:13.446Z,101048.53
2022-08-22T04:47:54.031Z,101052.44
2022-08-22T04:50:32.137Z,101043.91
2022-08-22T04:53:16.653Z,101044.31
2022-08-22T04:55:57.160Z,101050.09
2022-08-22T04:58:42.445Z,101051.50
2022-08-22T05:01:17.546Z,101059.16
2022-08-22T05:03:53.689Z,101057.91
2022-08-22T05:06:31.102Z,101057.91
2022-08-22T05:09:07.292Z,101060.97
2022-08-22T05:11:38.951Z,101067.19
2022-08-22T05:14:16.449Z,101063.69
2022-08-22T05:16:52.914Z,101062.41
2022-08-22T05:19:32.113Z,101071.31
2022-08-22T05:22:07.537Z,101075.22
2022-08-22T05:24:42.447Z,101075.66
2022-08-22T05:27:15.833Z,101075.44
2022-08-22T05:29:49.597Z,101083.69
2022-08-22T05:32:24.918Z,101080.53
2022-08-22T05:35:01.506Z,101079.91
2022-08-22T05:37:43.500Z,101076.78
2022-08-22T05:40:21.085Z,101088.09
2022-08-22T05:42:51.542Z,101091.78
2022-08-22T05:45:21.950Z,101091.97
2022-08-22T05:47:58.724Z,101088.00
2022-08-22T05:50:38.873Z,101091.69
2022-08-22T05:53:15.866Z,101092.28
2022-08-22T05:55:58.037Z,101088.09
2022-08-22T05:58:51.085Z,101093.88
2022-08-22T06:01:27.777Z,101095.91
2022-08-22T06:04:09.631Z,101096.28
2022-08-22T06:06:45.252Z,101098.06
2022-08-22T06:09:25.975Z,101101.78
2022-08-22T06:12:18.227Z,101106.28
2022-08-22T06:15:12.271Z,101108.72
2022-08-22T06:17:47.458Z,101116.50
2022-08-22T06:20:22.310Z,101112.53
2022-08-22T06:22:55.714Z,101108.31
2022-08-22T06:25:32.383Z,101115.16
2022-08-22T06:28:07.024Z,101110.75
2022-08-22T06:30:39.625Z,101122.16
2022-08-22T06:33:15.882Z,101115.25
2022-08-22T06:36:02.288Z,101109.38
2022-08-22T06:38:35.004Z,101115.31
2022-08-22T06:41:10.654Z,101116.25
2022-08-22T06:43:44.745Z,101113.25
2022-08-22T06:46:19.189Z,101111.31
2022-08-22T06:48:51.567Z,101119.31
2022-08-22T06:51:24.150Z,101123.00
2022-08-22T06:53:59.539Z,101124.78
2022-08-22T06:56:38.854Z,101121.63
2022-08-22T06:59:14.350Z,101122.81
2022-08-22T07:01:51.003Z,101127.75
2022-08-22T07:04:26.800Z,101124.00
2022-08-22T07:06:59.030Z,101127.31
2022-08-22T07:09:30.986Z,101134.34
2022-08-22T07:12:06.059Z,101142.03
2022-08-22T07:14:45.039Z,101136.63
2022-08-22T07:17:21.690Z,101137.22
2022-08-22T07:20:00.039Z,101129.72
2022-08-22T07:22:33.079Z,101134.66
2022-08-22T07:25:11.150Z,101135.00
2022-08-22T07:28:01.079Z,101144.06
2022-08-22T07:30:46.784Z,101141.25
2022-08-22T07:33:31.969Z,101138.44
2022-08-22T07:36:05.888Z,101130.47
2022-08-22T07:38:43.130Z,101135.66
2022-08-22T07:41:20.080Z,101140.84
2022-08-22T07:43:56.178Z,101143.09
2022-08-22T07:46:33.881Z,101137.25
2022-08-22T07:49:15.707Z,101143.00
2022-08-22T07:51:49.772Z,101148.19
2022-08-22T07:54:27.789Z,101147.94
2022-08-22T07:57:04.418Z,101147.25
2022-08-22T07:59:40.162Z,101149.59
2022-08-22T08:02:14.939Z,101145.72
2022-08-22T08:04:46.834Z,101151.03
2022-08-22T08:07:19.127Z,101150.56
2022-08-22T08:09:56.199Z,101140.91
2022-08-22T08:12:35.709Z,101147.50
2022-08-22T08:15:13.332Z,101141.38
2022-08-22T08:17:43.825Z,101145.25
2022-08-22T08:20:17.867Z,101148.19
2022-08-22T08:22:49.095Z,101148.78
2022-08-22T08:25:22.407Z,101145.00
2022-08-22T08:28:06.182Z,101143.72
2022-08-22T08:30:46.791Z,101143.47
2022-08-22T08:33:24.741Z,101145.13
2022-08-22T08:36:02.305Z,101140.53
2022-08-22T08:38:39.193Z,101149.25
2022-08-22T08:41:33.670Z,101140.63
2022-08-22T08:44:17.062Z,101150.44
2022-08-22T08:47:25.508Z,101138.75
2022-08-22T08:50:07.050Z,101144.59
2022-08-22T08:53:07.578Z,101135.72
2022-08-22T08:55:48.532Z,101138.06
2022-08-22T08:58:43.820Z,101137.00
2022-08-22T09:01:35.077Z,101137.59
2022-08-22T09:04:29.133Z,101142.53
2022-08-22T09:07:24.296Z,101142.03
2022-08-22T09:10:14.537Z,101140.75
2022-08-22T09:13:21.078Z,101141.31
2022-08-22T09:16:10.262Z,101143.56
2022-08-22T09:18:55.756Z,101140.59
2022-08-22T09:21:53.906Z,101144.63
2022-08-22T09:24:52.489Z,101139.53
2022-08-22T09:27:37.218Z,101140.22
2022-08-22T09:30:12.925Z,101141.47
2022-08-22T09:32:50.448Z,101136.13
2022-08-22T09:35:29.768Z,101142.63
2022-08-22T09:38:12.168Z,101149.28
2022-08-22T09:40:52.552Z,101148.91
2022-08-22T09:43:27.154Z,101149.56
2022-08-22T09:46:09.563Z,101150.72
2022-08-22T09:49:05.567Z,101148.69
2022-08-22T09:51:43.242Z,101152.06
2022-08-22T09:54:31.366Z,101148.13
2022-08-22T09:57:26.772Z,101150.28
2022-08-22T10:00:17.685Z,101150.78
2022-08-22T10:03:03.955Z,101152.41
2022-08-22T10:05:43.984Z,101151.97
2022-08-22T10:08:26.129Z,101143.75
2022-08-22T10:11:21.736Z,101149.34
2022-08-22T10:14:04.090Z,101152.13
2022-08-22T10:16:59.872Z,101158.13
2022-08-22T10:19:35.272Z,101156.28
2022-08-22T10:22:29.863Z,101152.25
2022-08-22T10:25:20.843Z,101156.94
2022-08-22T10:27:59.680Z,101149.38
2022-08-22T10:30:39.492Z,101149.28
2022-08-22T10:33:17.341Z,101157.47
2022-08-22T10:36:01.096Z,101151.19
2022-08-22T10:38:46.254Z,101152.44
2022-08-22T10:41:28.612Z,101153.25
2022-08-22T10:44:05.471Z,101147.59
2022-08-22T10:46:47.025Z,101157.22
2022-08-22T10:49:28.365Z,101153.97
2022-08-22T10:52:15.289Z,101148.00
2022-08-22T10:54:50.688Z,101148.81
2022-08-22T10:57:32.380Z,101140.81
2022-08-22T11:00:10.505Z,101141.22
2022-08-22T11:02:55.189Z,101151.78
2022-08-22T11:05:47.768Z,101150.25
2022-08-22T11:09:02.038Z,101143.38
2022-08-22T11:11:42.437Z,101140.09
2022-08-22T11:14:35.618Z,101132.41
2022-08-22T11:17:29.911Z,101142.75
2022-08-22T11:20:22.343Z,101141.91
2022-08-22T11:23:12.647Z,101148.94
2022-08-22T11:25:53.871Z,101145.78
2022-08-22T11:28:36.081Z,101147.84
2022-08-22T11:31:14.072Z,101145.28
2022-08-22T11:33:52.547Z,101150.31
2022-08-22T11:36:35.294Z,101146.38
2022-08-22T11:39:19.488Z,101144.66
2022-08-22T11:42:04.157Z,101151.00
2022-08-22T11:44:50.668Z,101146.44
2022-08-22T11:47:27.199Z,101147.03
2022-08-22T11:50:02.733Z,101148.41
2022-08-22T11:52:54.917Z,101138.34
2022-08-22T11:55:34.393Z,101143.50
2022-08-22T11:58:28.799Z,101131.78
2022-08-22T12:01:04.671Z,101142.16
2022-08-22T12:03:45.595Z,101137.25
2022-08-22T12:06:47.275Z,101132.75
2022-08-22T12:09:31.981Z,101125.97
2022-08-22T12:12:18.191Z,101131.16
2022-08-22T12:15:04.613Z,101128.41
2022-08-22T12:18:13.510Z,101124.41
2022-08-22T12:21:09.172Z,101127.75
2022-08-22T12:24:06.097Z,101113.59
2022-08-22T12:26:52.987Z,101120.38
2022-08-22T12:29:39.996Z,101123.34
2022-08-22T12:32:50.690Z,101124.94
2022-08-22T12:35:32.035Z,101121.06
2022-08-22T12:38:28.368Z,101113.41
2022-08-22T12:41:28.506Z,101118.72
2022-08-22T12:44:26.085Z,101114.84
2022-08-22T12:47:17.211Z,101106.63
2022-08-22T12:50:07.654Z,101103.84
2022-08-22T12:53:00.439Z,101108.16
2022-08-22T12:55:45.675Z,101101.84
2022-08-22T12:58:31.703Z,101101.84
2022-08-22T13:01:09.757Z,101098.09
2022-08-22T13:03:46.402Z,101094.03
2022-08-22T13:06:50.005Z,101092.22
2022-08-22T13:09:28.465Z,101095.75
2022-08-22T13:12:04.582Z,101092.66
2022-08-22T13:14:36.967Z,101087.69
2022-08-22T13:17:24.034Z,101093.66
2022-08-22T13:20:06.421Z,101087.38
2022-08-22T13:22:41.567Z,101094.47
2022-08-22T13:25:25.876Z,101084.38
2022-08-22T13:27:59.574Z,101086.22
2022-08-22T13:30:34.126Z,101088.63
2022-08-22T13:33:13.252Z,101083.44
2022-08-22T13:35:51.856Z,101088.91
2022-08-22T13:38:26.650Z,101083.97
2022-08-22T13:40:58.831Z,101090.38
2022-08-22T13:43:32.563Z,101091.41
2022-08-22T13:46:04.889Z,101095.16
2022-08-22T13:48:52.163Z,101098.94
2022-08-22T13:51:29.295Z,101084.53
2022-08-22T13:54:10.958Z,101082.31
2022-08-22T13:56:47.811Z,101085.28
2022-08-22T13:59:49.484Z,101092.63
2022-08-22T14:02:35.418Z,101094.53
2022-08-22T14:05:12.521Z,101092.38
2022-08-22T14:07:53.564Z,101080.94
2022-08-22T14:10:30.031Z,101088.28
2022-08-22T14:13:38.090Z,101088.84
2022-08-22T14:16:12.546Z,101080.69
2022-08-22T14:18:53.801Z,101088.22
2022-08-22T14:21:40.834Z,101081.38
2022-08-22T14:24:20.193Z,101084.41
2022-08-22T14:27:00.112Z,101077.66
2022-08-22T14:29:50.383Z,101081.50
2022-08-22T14:32:42.132Z,101071.69
2022-08-22T14:35:23.561Z,101067.28
2022-08-22T14:38:17.388Z,101067.22
2022-08-22T14:40:49.918Z,101064.50
2022-08-22T14:43:41.278Z,101070.69
2022-08-22T14:46:16.118Z,101067.66
2022-08-22T14:48:51.426Z,101065.44
2022-08-22T14:51:25.580Z,101063.81
2022-08-22T14:54:13.859Z,101067.59
2022-08-22T14:56:45.738Z,101067.34
2022-08-22T14:59:26.656Z,101066.28
2022-08-22T15:02:03.253Z,101062.72
2022-08-22T15:04:38.300Z,101071.13
2022-08-22T15:07:09.471Z,101064.56
2022-08-22T15:09:45.998Z,101065.59
2022-08-22T15:12:28.574Z,101062.81
2022-08-22T15:15:02.559Z,101063.03
2022-08-22T15:17:44.453Z,101065.19
2022-08-22T15:20:36.379Z,101063.47
2022-08-22T15:23:23.056Z,101071.88
2022-08-22T15:26:06.136Z,101063.38
2022-08-22T15:28:52.464Z,101070.97
2022-08-22T15:31:24.354Z,101067.75
2022-08-22T15:33:54.971Z,101064.78
2022-08-22T15:36:28.346Z,101064.72
2022-08-22T15:39:19.714Z,101072.03
2022-08-22T15:41:53.353Z,101068.50
2022-08-22T15:44:32.929Z,101067.94
2022-08-22T15:47:24.172Z,101070.09
2022-08-22T15:50:00.434Z,101073.06
2022-08-22T15:52:33.160Z,101080.31
2022-08-22T15:55:23.787Z,101075.06
2022-08-22T15:58:04.706Z,101079.19
2022-08-22T16:00:43.796Z,101070.78
2022-08-22T16:03:26.692Z,101071.03
2022-08-22T16:05:59.636Z,101071.28
2022-08-22T16:08:34.205Z,101072.34
2022-08-22T16:11:33.097Z,101071.28
2022-08-22T16:14:26.234Z,101073.19
2022-08-22T16:17:04.102Z,101082.72
2022-08-22T16:19:35.577Z,101076.72
2022-08-22T16:22:15.916Z,101082.66
2022-08-22T16:25:10.388Z,101081.00
2022-08-22T16:27:55.721Z,101083.16
2022-08-22T16:30:42.016Z,101084.47
2022-08-22T16:33:18.395Z,101084.22
2022-08-22T16:36:25.155Z,101086.13
2022-08-22T16:38:58.432Z,101092.38
2022-08-22T16:41:38.437Z,101090.16
2022-08-22T16:44:35.235Z,101087.84
2022-08-22T16:47:20.045Z,101082.31
2022-08-22T16:50:05.548Z,101085.28
2022-08-22T16:52:57.667Z,101087.69
2022-08-22T16:56:03.542Z,101082.72
2022-08-22T16:59:03.307Z,101082.16
2022-08-22T17:01:55.488Z,101090.28
2022-08-22T17:04:39.538Z,101082.31
2022-08-22T17:07:21.731Z,101086.59
2022-08-22T17:10:12.549Z,101084.63
2022-08-22T17:12:53.712Z,101081.81
2022-08-22T17:15:34.330Z,101093.66
2022-08-22T17:18:29.296Z,101093.56
2022-08-22T17:21:12.145Z,101094.31
2022-08-22T17:23:49.811Z,101099.41
2022-08-22T17:26:31.733Z,101099.88
2022-08-22T17:29:15.519Z,101097.66
2022-08-22T17:31:52.927Z,101104.41
2022-08-22T17:34:35.335Z,101096.41
2022-08-22T17:37:16.003Z,101104.53
2022-08-22T17:39:56.885Z,101098.53
2022-08-22T17:42:45.411Z,101107.72
2022-08-22T17:45:27.866Z,101107.38
2022-08-22T17:48:05.729Z,101099.38
2022-08-22T17:50:42.959Z,101096.69
2022-08-22T17:53:27.913Z,101109.16
2022-08-22T17:56:04.816Z,101114.59
2022-08-22T17:58:44.108Z,101115.66
2022-08-22T18:01:19.019Z,101118.84
2022-08-22T18:03:56.307Z,101118.28
2022-08-22T18:06:32.745Z,101127.47
2022-08-22T18:09:14.961Z,101131.25
2022-08-22T18:11:50.229Z,101126.41
2022-08-22T18:14:30.362Z,101124.19
2022-08-22T18:17:02.263Z,101132.31
2022-08-22T18:19:48.036Z,101133.63
2022-08-22T18:22:24.852Z,101144.13
2022-08-22T18:25:04.285Z,101156.03
2022-08-22T18:27:39.837Z,101159.00
2022-08-22T18:30:21.112Z,101158.66
2022-08-22T18:32:58.018Z,101160.78
2022-08-22T18:35:34.185Z,101161.84
2022-08-22T18:38:19.937Z,101167.25
2022-08-22T18:40:57.572Z,101165.13
2022-08-22T18:43:37.829Z,101166.19
2022-08-22T18:46:31.722Z,101157.44
2022-08-22T18:49:19.331Z,101158.19
2022-08-22T18:52:16.193Z,101151.94
2022-08-22T18:55:06.728Z,101147.81
2022-08-22T18:57:56.656Z,101150.75
2022-08-22T19:00:45.481Z,101141.81
2022-08-22T19:03:30.719Z,101144.53
2022-08-22T19:06:39.680Z,101145.34
2022-08-22T19:09:35.457Z,101143.22
2022-08-22T19:12:17.171Z,101142.97
2022-08-22T19:15:28.505Z,101144.88
2022-08-22T19:18:34.488Z,101135.91
2022-08-22T19:21:34.551Z,101142.63
2022-08-22T19:24:10.420Z,101146.41
2022-08-22T19:26:47.904Z,101153.72
2022-08-22T19:29:47.858Z,101160.19
2022-08-22T19:32:47.621Z,101159.63
2022-08-22T19:35:24.625Z,101160.44
2022-08-22T19:37:56.053Z,101158.78
2022-08-22T19:40:53.525Z,101155.50
2022-08-22T19:43:40.984Z,101170.44
2022-08-22T19:46:14.961Z,101170.44
2022-08-22T19:48:52.794Z,101165.28
2022-08-22T19:51:32.261Z,101159.28
2022-08-22T19:54:20.463Z,101161.16
2022-08-22T19:57:03.716Z,101161.41
2022-08-22T19:59:51.101Z,101168.69
2022-08-22T20:02:35.296Z,101166.00
2022-08-22T20:05:15.360Z,101168.13
2022-08-22T20:08:03.110Z,101174.00
2022-08-22T20:10:42.980Z,101162.94
2022-08-22T20:13:22.821Z,101169.66
2022-08-22T20:16:16.445Z,101168.25
2022-08-22T20:19:19.591Z,101168.25
2022-08-22T20:21:58.095Z,101162.25
2022-08-22T20:24:39.123Z,101173.09
2022-08-22T20:27:17.146Z,101171.66
2022-08-22T20:29:53.012Z,101171.91
2022-08-22T20:32:26.109Z,101181.06
2022-08-22T20:35:02.989Z,101177.53
2022-08-22T20:38:05.277Z,101171.50
2022-08-22T20:40:56.597Z,101173.03
2022-08-22T20:43:35.172Z,101177.41
2022-08-22T20:46:19.020Z,101164.09
2022-08-22T20:48:53.039Z,101173.50
2022-08-22T20:51:25.972Z,101172.69
2022-08-22T20:53:57.866Z,101168.91
2022-08-22T20:56:53.498Z,101171.03
2022-08-22T20:59:35.756Z,101171.88
2022-08-22T21:02:17.093Z,101173.16
2022-08-22T21:04:52.743Z,101173.16
2022-08-22T21:07:25.804Z,101169.88
2022-08-22T21:10:10.336Z,101177.41
2022-08-22T21:12:42.742Z,101170.09
2022-08-22T21:15:13.106Z,101162.44
2022-08-22T21:17:42.946Z,101168.69
2022-08-22T21:20:21.471Z,101173.53
2022-08-22T21:22:52.130Z,101170.56
2022-08-22T21:28:39.559Z,101176.47
2022-08-22T21:31:15.938Z,101172.34
2022-08-22T21:33:48.416Z,101168.81
2022-08-22T21:36:20.940Z,101167.16
2022-08-22T21:38:53.901Z,101170.13
2022-08-22T21:41:28.817Z,101164.34
2022-08-22T21:44:20.429Z,101167.28
2022-08-22T21:46:50.380Z,101171.66
2022-08-22T21:49:25.504Z,101169.41
2022-08-22T21:51:56.408Z,101174.81
2022-08-22T21:54:43.175Z,101181.28
2022-08-22T21:57:39.090Z,101169.84
2022-08-22T22:00:39.420Z,101173.19
2022-08-22T22:03:09.534Z,101166.69
2022-08-22T22:05:40.500Z,101168.19
2022-08-22T22:08:12.449Z,101169.50
2022-08-22T22:10:43.572Z,101166.78
2022-08-22T22:13:13.872Z,101171.38
2022-08-22T22:15:48.324Z,101177.84
2022-08-22T22:18:20.970Z,101176.78
2022-08-22T22:20:52.068Z,101182.22
2022-08-22T22:23:22.472Z,101184.91
2022-08-22T22:25:53.049Z,101179.50
2022-08-22T22:28:26.780Z,101181.63
2022-08-22T22:30:59.663Z,101174.56
2022-08-22T22:33:33.836Z,101168.56
2022-08-22T22:36:08.583Z,101176.66
2022-08-22T22:38:39.662Z,101167.97
2022-08-22T22:41:09.598Z,101172.78
2022-08-22T22:43:39.509Z,101171.97
2022-08-22T22:46:12.064Z,101175.13
2022-08-22T22:48:41.900Z,101181.38
2022-08-22T22:51:13.675Z,101171.59
2022-08-22T22:53:44.934Z,101175.38
2022-08-22T22:56:18.227Z,101176.44
2022-08-22T22:59:01.166Z,101173.97
2022-08-22T23:02:03.751Z,101169.38
2022-08-22T23:04:35.084Z,101173.13
2022-08-22T23:07:05.610Z,101168.19
2022-08-22T23:09:38.427Z,101164.88
2022-08-22T23:12:15.475Z,101170.31
2022-08-22T23:14:45.458Z,101163.25
2022-08-22T23:17:19.126Z,101164.28
2022-08-22T23:19:49.051Z,101158.88
2022-08-22T23:22:18.930Z,101159.91
2022-08-22T23:24:48.810Z,101156.38
2022-08-22T23:27:19.084Z,101163.69
2022-08-22T23:29:48.970Z,101159.31
2022-08-22T23:32:21.604Z,101160.84
2022-08-22T23:34:51.521Z,101152.94
2022-08-22T23:37:24.728Z,101152.09
2022-08-22T23:39:54.599Z,101149.41
2022-08-22T23:42:24.558Z,101145.03
2022-08-22T23:44:54.450Z,101144.47
2022-08-22T23:47:26.920Z,101143.03
2022-08-22T23:49:56.768Z,101142.22
2022-08-22T23:52:26.714Z,101139.75
2022-08-22T23:54:57.153Z,101151.38
2022-08-22T23:57:27.701Z,101149.50
2022-08-22T23:59:59.737Z,101146.22
